Terminal Aerodrome Forecast
Issued by NWS Shreveport, LA

Home | Current Version | Previous Version | Text Only | Print | Product List | Glossary On
Versions: 1 2 3 4 5 6 7 8 9 10 11 12 13 14 15 16 17 18 19 20 21 22 23 24 25 26 27 28 29 30 31 32 33
762
FTUS44 KSHV 300520
TAFMLU
TAF
KMLU 300520Z 3006/3106 18003KT P6SM FEW050 SCT180 SCT250
      TEMPO 3008/3012 BKN050
     FM301400 23007KT P6SM SCT180 SCT250
     FM301600 24007KT P6SM SCT035 SCT180 SCT250
     FM302000 19007KT P6SM VCTS SCT045CB SCT250
     FM310200 VRB03KT P6SM FEW050 SCT250=

USA.gov is the U.S. government's official web portal to all federal, state and local government web resources and services.